Schedule Details

Flight Number: ASX300X
Departure: Frankfurt am Main (EDDF) at 09:00Z
Arrival: Gdansk im. Lecha Walesy (EPGD) at 11:00Z

Weather Information
EDDF 272250Z 02008KT 9999 FEW045CB SCT130 21/13 Q1017 NOSIG
EPGD 272300Z 06004KT 020V110 CAVOK 16/15 Q1025

Schedule Frequency

Route Map